sensor_id;sensor_type;location;lat;lon;timestamp;P1;durP1;ratioP1;P2;durP2;ratioP2
5499;SDS011;2772;42.700;23.304;2023-04-03T00:01:15;5.63;;;4.10;;
5499;SDS011;2772;42.700;23.304;2023-04-03T00:03:42;10.13;;;4.53;;
5499;SDS011;2772;42.700;23.304;2023-04-03T00:06:11;9.13;;;5.00;;
5499;SDS011;2772;42.700;23.304;2023-04-03T00:08:38;6.77;;;4.70;;
5499;SDS011;2772;42.700;23.304;2023-04-03T00:11:06;6.63;;;4.70;;
5499;SDS011;2772;42.700;23.304;2023-04-03T00:13:33;5.37;;;4.83;;
5499;SDS011;2772;42.700;23.304;2023-04-03T00:16:00;4.57;;;4.17;;
5499;SDS011;2772;42.700;23.304;2023-04-03T00:18:28;11.50;;;4.37;;
5499;SDS011;2772;42.700;23.304;2023-04-03T00:20:55;6.77;;;5.43;;
5499;SDS011;2772;42.700;23.304;2023-04-03T00:23:23;4.83;;;4.33;;
5499;SDS011;2772;42.700;23.304;2023-04-03T00:25:49;7.43;;;5.20;;
5499;SDS011;2772;42.700;23.304;2023-04-03T00:28:16;11.43;;;5.10;;
5499;SDS011;2772;42.700;23.304;2023-04-03T00:30:43;8.47;;;5.07;;
5499;SDS011;2772;42.700;23.304;2023-04-03T00:33:10;12.17;;;5.83;;
5499;SDS011;2772;42.700;23.304;2023-04-03T00:35:38;10.20;;;6.60;;
5499;SDS011;2772;42.700;23.304;2023-04-03T00:38:05;10.30;;;6.77;;
5499;SDS011;2772;42.700;23.304;2023-04-03T00:40:35;12.40;;;7.30;;
5499;SDS011;2772;42.700;23.304;2023-04-03T00:43:05;12.97;;;7.57;;
5499;SDS011;2772;42.700;23.304;2023-04-03T00:45:38;12.93;;;7.37;;
5499;SDS011;2772;42.700;23.304;2023-04-03T00:48:06;11.20;;;6.77;;
5499;SDS011;2772;42.700;23.304;2023-04-03T00:50:37;9.00;;;5.80;;
5499;SDS011;2772;42.700;23.304;2023-04-03T00:53:06;10.70;;;4.93;;
5499;SDS011;2772;42.700;23.304;2023-04-03T00:55:38;5.73;;;4.00;;
5499;SDS011;2772;42.700;23.304;2023-04-03T00:58:05;5.70;;;4.60;;
5499;SDS011;2772;42.700;23.304;2023-04-03T01:00:33;5.47;;;4.00;;
5499;SDS011;2772;42.700;23.304;2023-04-03T01:03:01;8.53;;;4.40;;
5499;SDS011;2772;42.700;23.304;2023-04-03T01:05:28;4.30;;;3.90;;
5499;SDS011;2772;42.700;23.304;2023-04-03T01:07:55;4.27;;;3.87;;
5499;SDS011;2772;42.700;23.304;2023-04-03T01:10:23;3.90;;;3.60;;
5499;SDS011;2772;42.700;23.304;2023-04-03T01:12:52;5.30;;;3.80;;
5499;SDS011;2772;42.700;23.304;2023-04-03T01:15:20;4.00;;;3.70;;
5499;SDS011;2772;42.700;23.304;2023-04-03T01:17:49;4.80;;;4.00;;
5499;SDS011;2772;42.700;23.304;2023-04-03T01:20:26;5.87;;;3.77;;
5499;SDS011;2772;42.700;23.304;2023-04-03T01:23:12;6.43;;;3.80;;
5499;SDS011;2772;42.700;23.304;2023-04-03T01:25:52;5.37;;;4.53;;
5499;SDS011;2772;42.700;23.304;2023-04-03T01:28:22;27.17;;;16.50;;
5499;SDS011;2772;42.700;23.304;2023-04-03T01:30:51;23.70;;;16.10;;
5499;SDS011;2772;42.700;23.304;2023-04-03T01:33:26;11.63;;;7.10;;
5499;SDS011;2772;42.700;23.304;2023-04-03T01:35:53;5.10;;;4.60;;
5499;SDS011;2772;42.700;23.304;2023-04-03T01:38:20;8.00;;;5.53;;
5499;SDS011;2772;42.700;23.304;2023-04-03T01:40:47;12.50;;;8.70;;
5499;SDS011;2772;42.700;23.304;2023-04-03T01:43:13;5.50;;;4.93;;
5499;SDS011;2772;42.700;23.304;2023-04-03T01:45:40;13.37;;;9.70;;
5499;SDS011;2772;42.700;23.304;2023-04-03T01:48:07;12.37;;;8.87;;
5499;SDS011;2772;42.700;23.304;2023-04-03T01:50:35;11.30;;;6.73;;
5499;SDS011;2772;42.700;23.304;2023-04-03T01:53:01;10.40;;;6.67;;
5499;SDS011;2772;42.700;23.304;2023-04-03T01:55:28;21.73;;;7.67;;
5499;SDS011;2772;42.700;23.304;2023-04-03T01:57:55;24.17;;;7.10;;
5499;SDS011;2772;42.700;23.304;2023-04-03T02:00:21;9.97;;;6.23;;
5499;SDS011;2772;42.700;23.304;2023-04-03T02:02:48;9.00;;;4.47;;
5499;SDS011;2772;42.700;23.304;2023-04-03T02:05:15;6.03;;;4.13;;
5499;SDS011;2772;42.700;23.304;2023-04-03T02:07:43;7.03;;;4.47;;
5499;SDS011;2772;42.700;23.304;2023-04-03T02:10:10;10.20;;;4.67;;
5499;SDS011;2772;42.700;23.304;2023-04-03T02:12:37;6.80;;;4.53;;
5499;SDS011;2772;42.700;23.304;2023-04-03T02:15:04;4.10;;;3.80;;
5499;SDS011;2772;42.700;23.304;2023-04-03T02:17:32;5.93;;;3.70;;
5499;SDS011;2772;42.700;23.304;2023-04-03T02:19:58;5.17;;;3.87;;
5499;SDS011;2772;42.700;23.304;2023-04-03T02:22:25;5.43;;;3.33;;
5499;SDS011;2772;42.700;23.304;2023-04-03T02:24:53;3.53;;;3.23;;
5499;SDS011;2772;42.700;23.304;2023-04-03T02:27:20;4.13;;;3.17;;
5499;SDS011;2772;42.700;23.304;2023-04-03T02:29:47;3.67;;;3.23;;
5499;SDS011;2772;42.700;23.304;2023-04-03T02:32:13;4.90;;;3.30;;
5499;SDS011;2772;42.700;23.304;2023-04-03T02:34:40;9.20;;;3.40;;
5499;SDS011;2772;42.700;23.304;2023-04-03T02:37:07;3.30;;;3.10;;
5499;SDS011;2772;42.700;23.304;2023-04-03T02:39:33;3.93;;;3.13;;
5499;SDS011;2772;42.700;23.304;2023-04-03T02:42:02;17.77;;;3.63;;
5499;SDS011;2772;42.700;23.304;2023-04-03T02:44:29;3.33;;;3.03;;
5499;SDS011;2772;42.700;23.304;2023-04-03T02:46:55;3.23;;;2.97;;
5499;SDS011;2772;42.700;23.304;2023-04-03T02:49:22;20.20;;;3.80;;
5499;SDS011;2772;42.700;23.304;2023-04-03T02:51:49;15.97;;;3.70;;
5499;SDS011;2772;42.700;23.304;2023-04-03T02:54:15;3.37;;;3.10;;
5499;SDS011;2772;42.700;23.304;2023-04-03T02:56:42;6.17;;;3.60;;
5499;SDS011;2772;42.700;23.304;2023-04-03T02:59:10;3.70;;;3.17;;
5499;SDS011;2772;42.700;23.304;2023-04-03T03:01:37;5.03;;;3.43;;
5499;SDS011;2772;42.700;23.304;2023-04-03T03:04:04;6.97;;;3.50;;
5499;SDS011;2772;42.700;23.304;2023-04-03T03:06:31;7.53;;;3.67;;
5499;SDS011;2772;42.700;23.304;2023-04-03T03:08:57;6.40;;;3.90;;
5499;SDS011;2772;42.700;23.304;2023-04-03T03:11:24;5.13;;;4.20;;
5499;SDS011;2772;42.700;23.304;2023-04-03T03:13:51;7.87;;;4.67;;
5499;SDS011;2772;42.700;23.304;2023-04-03T03:16:19;13.30;;;5.57;;
5499;SDS011;2772;42.700;23.304;2023-04-03T03:18:46;18.97;;;5.77;;
5499;SDS011;2772;42.700;23.304;2023-04-03T03:21:13;10.97;;;4.47;;
5499;SDS011;2772;42.700;23.304;2023-04-03T03:23:40;11.70;;;4.77;;
5499;SDS011;2772;42.700;23.304;2023-04-03T03:26:07;8.70;;;5.30;;
5499;SDS011;2772;42.700;23.304;2023-04-03T03:28:36;6.23;;;4.97;;
5499;SDS011;2772;42.700;23.304;2023-04-03T03:31:03;6.20;;;5.03;;
5499;SDS011;2772;42.700;23.304;2023-04-03T03:33:32;10.63;;;4.80;;
5499;SDS011;2772;42.700;23.304;2023-04-03T03:35:59;13.33;;;5.63;;
5499;SDS011;2772;42.700;23.304;2023-04-03T03:38:26;10.10;;;5.43;;
5499;SDS011;2772;42.700;23.304;2023-04-03T03:40:52;6.10;;;4.90;;
5499;SDS011;2772;42.700;23.304;2023-04-03T03:43:19;11.27;;;5.27;;
5499;SDS011;2772;42.700;23.304;2023-04-03T03:45:49;12.23;;;5.80;;
5499;SDS011;2772;42.700;23.304;2023-04-03T03:48:16;10.20;;;5.43;;
5499;SDS011;2772;42.700;23.304;2023-04-03T03:50:44;15.30;;;5.60;;
5499;SDS011;2772;42.700;23.304;2023-04-03T03:53:11;10.57;;;5.90;;
5499;SDS011;2772;42.700;23.304;2023-04-03T03:55:38;9.77;;;6.30;;
5499;SDS011;2772;42.700;23.304;2023-04-03T03:58:04;15.93;;;6.23;;
5499;SDS011;2772;42.700;23.304;2023-04-03T04:00:32;14.67;;;7.10;;
5499;SDS011;2772;42.700;23.304;2023-04-03T04:02:58;13.23;;;7.03;;
5499;SDS011;2772;42.700;23.304;2023-04-03T04:05:25;10.40;;;6.87;;
5499;SDS011;2772;42.700;23.304;2023-04-03T04:07:53;13.60;;;7.80;;
5499;SDS011;2772;42.700;23.304;2023-04-03T04:10:20;12.90;;;8.30;;
5499;SDS011;2772;42.700;23.304;2023-04-03T04:12:47;22.60;;;8.30;;
5499;SDS011;2772;42.700;23.304;2023-04-03T04:15:16;17.27;;;8.97;;
5499;SDS011;2772;42.700;23.304;2023-04-03T04:17:43;12.73;;;7.83;;
5499;SDS011;2772;42.700;23.304;2023-04-03T04:20:10;14.30;;;8.87;;
5499;SDS011;2772;42.700;23.304;2023-04-03T04:22:37;19.40;;;8.60;;
5499;SDS011;2772;42.700;23.304;2023-04-03T04:25:05;17.37;;;7.40;;
5499;SDS011;2772;42.700;23.304;2023-04-03T04:27:32;30.63;;;9.23;;
5499;SDS011;2772;42.700;23.304;2023-04-03T04:29:59;20.33;;;9.10;;
5499;SDS011;2772;42.700;23.304;2023-04-03T04:32:26;22.30;;;10.10;;
5499;SDS011;2772;42.700;23.304;2023-04-03T04:34:53;18.50;;;9.33;;
5499;SDS011;2772;42.700;23.304;2023-04-03T04:37:19;27.80;;;13.70;;
5499;SDS011;2772;42.700;23.304;2023-04-03T04:39:46;24.20;;;14.60;;
5499;SDS011;2772;42.700;23.304;2023-04-03T04:42:14;28.70;;;14.60;;
5499;SDS011;2772;42.700;23.304;2023-04-03T04:44:41;48.03;;;13.10;;
5499;SDS011;2772;42.700;23.304;2023-04-03T04:47:08;26.07;;;11.83;;
5499;SDS011;2772;42.700;23.304;2023-04-03T04:49:35;37.33;;;15.57;;
5499;SDS011;2772;42.700;23.304;2023-04-03T04:52:02;41.27;;;15.80;;
5499;SDS011;2772;42.700;23.304;2023-04-03T04:54:28;32.57;;;13.53;;
5499;SDS011;2772;42.700;23.304;2023-04-03T04:56:55;24.43;;;10.90;;
5499;SDS011;2772;42.700;23.304;2023-04-03T04:59:23;25.23;;;10.70;;
5499;SDS011;2772;42.700;23.304;2023-04-03T05:01:50;28.80;;;11.10;;
5499;SDS011;2772;42.700;23.304;2023-04-03T05:04:17;31.40;;;9.40;;
5499;SDS011;2772;42.700;23.304;2023-04-03T05:06:43;19.23;;;9.13;;
5499;SDS011;2772;42.700;23.304;2023-04-03T05:09:10;20.07;;;9.60;;
5499;SDS011;2772;42.700;23.304;2023-04-03T05:11:37;18.23;;;9.47;;
5499;SDS011;2772;42.700;23.304;2023-04-03T05:14:04;20.07;;;9.50;;
5499;SDS011;2772;42.700;23.304;2023-04-03T05:16:33;40.57;;;10.67;;
5499;SDS011;2772;42.700;23.304;2023-04-03T05:18:59;18.80;;;10.50;;
5499;SDS011;2772;42.700;23.304;2023-04-03T05:21:26;28.60;;;10.70;;
5499;SDS011;2772;42.700;23.304;2023-04-03T05:23:57;29.30;;;10.70;;
5499;SDS011;2772;42.700;23.304;2023-04-03T05:26:24;23.20;;;11.20;;
5499;SDS011;2772;42.700;23.304;2023-04-03T05:28:51;27.60;;;9.77;;
5499;SDS011;2772;42.700;23.304;2023-04-03T05:31:18;20.10;;;10.80;;
5499;SDS011;2772;42.700;23.304;2023-04-03T05:33:46;18.80;;;11.37;;
5499;SDS011;2772;42.700;23.304;2023-04-03T05:36:13;28.97;;;12.83;;
5499;SDS011;2772;42.700;23.304;2023-04-03T05:38:39;33.17;;;12.33;;
5499;SDS011;2772;42.700;23.304;2023-04-03T05:41:06;24.23;;;12.07;;
5499;SDS011;2772;42.700;23.304;2023-04-03T05:43:33;21.13;;;11.17;;
5499;SDS011;2772;42.700;23.304;2023-04-03T05:46:02;17.87;;;10.57;;
5499;SDS011;2772;42.700;23.304;2023-04-03T05:48:29;21.50;;;11.37;;
5499;SDS011;2772;42.700;23.304;2023-04-03T05:50:57;32.87;;;13.17;;
5499;SDS011;2772;42.700;23.304;2023-04-03T05:53:25;32.73;;;13.37;;
5499;SDS011;2772;42.700;23.304;2023-04-03T05:55:54;35.57;;;14.57;;
5499;SDS011;2772;42.700;23.304;2023-04-03T05:58:21;34.70;;;14.83;;
5499;SDS011;2772;42.700;23.304;2023-04-03T06:00:47;31.37;;;14.53;;
5499;SDS011;2772;42.700;23.304;2023-04-03T06:03:14;31.70;;;13.50;;
5499;SDS011;2772;42.700;23.304;2023-04-03T06:05:41;39.37;;;12.30;;
5499;SDS011;2772;42.700;23.304;2023-04-03T06:08:09;28.57;;;13.13;;
5499;SDS011;2772;42.700;23.304;2023-04-03T06:10:37;27.20;;;12.50;;
5499;SDS011;2772;42.700;23.304;2023-04-03T06:13:04;24.27;;;11.37;;
5499;SDS011;2772;42.700;23.304;2023-04-03T06:15:32;16.70;;;10.23;;
5499;SDS011;2772;42.700;23.304;2023-04-03T06:17:59;22.07;;;10.30;;
5499;SDS011;2772;42.700;23.304;2023-04-03T06:20:26;16.73;;;9.60;;
5499;SDS011;2772;42.700;23.304;2023-04-03T06:22:52;21.40;;;10.80;;
5499;SDS011;2772;42.700;23.304;2023-04-03T06:25:21;20.33;;;10.40;;
5499;SDS011;2772;42.700;23.304;2023-04-03T06:27:47;23.97;;;10.63;;
5499;SDS011;2772;42.700;23.304;2023-04-03T06:30:14;19.40;;;9.57;;
5499;SDS011;2772;42.700;23.304;2023-04-03T06:32:41;23.87;;;11.00;;
5499;SDS011;2772;42.700;23.304;2023-04-03T06:35:08;20.03;;;11.50;;
5499;SDS011;2772;42.700;23.304;2023-04-03T06:37:35;24.07;;;9.93;;
5499;SDS011;2772;42.700;23.304;2023-04-03T06:40:02;21.53;;;12.20;;
5499;SDS011;2772;42.700;23.304;2023-04-03T06:42:31;25.93;;;10.80;;
5499;SDS011;2772;42.700;23.304;2023-04-03T06:44:58;27.13;;;11.30;;
5499;SDS011;2772;42.700;23.304;2023-04-03T06:47:25;26.97;;;13.20;;
5499;SDS011;2772;42.700;23.304;2023-04-03T06:49:52;17.97;;;11.10;;
5499;SDS011;2772;42.700;23.304;2023-04-03T06:52:19;28.37;;;10.53;;
5499;SDS011;2772;42.700;23.304;2023-04-03T06:54:45;24.80;;;11.57;;
5499;SDS011;2772;42.700;23.304;2023-04-03T06:57:12;19.93;;;10.50;;
5499;SDS011;2772;42.700;23.304;2023-04-03T06:59:41;21.77;;;10.57;;
5499;SDS011;2772;42.700;23.304;2023-04-03T07:02:09;18.10;;;10.60;;
5499;SDS011;2772;42.700;23.304;2023-04-03T07:04:37;30.90;;;13.47;;
5499;SDS011;2772;42.700;23.304;2023-04-03T07:07:04;25.80;;;11.30;;
5499;SDS011;2772;42.700;23.304;2023-04-03T07:09:31;22.03;;;12.03;;
5499;SDS011;2772;42.700;23.304;2023-04-03T07:11:57;20.47;;;10.80;;
5499;SDS011;2772;42.700;23.304;2023-04-03T07:14:24;30.77;;;12.30;;
5499;SDS011;2772;42.700;23.304;2023-04-03T07:16:52;21.80;;;10.67;;
5499;SDS011;2772;42.700;23.304;2023-04-03T07:19:19;21.63;;;12.27;;
5499;SDS011;2772;42.700;23.304;2023-04-03T07:21:46;33.97;;;13.80;;
5499;SDS011;2772;42.700;23.304;2023-04-03T07:24:13;39.07;;;14.90;;
5499;SDS011;2772;42.700;23.304;2023-04-03T07:26:39;33.37;;;13.77;;
5499;SDS011;2772;42.700;23.304;2023-04-03T07:29:06;32.17;;;12.63;;
5499;SDS011;2772;42.700;23.304;2023-04-03T07:31:34;41.27;;;14.70;;
5499;SDS011;2772;42.700;23.304;2023-04-03T07:34:02;35.77;;;15.10;;
5499;SDS011;2772;42.700;23.304;2023-04-03T07:36:28;28.50;;;13.97;;
5499;SDS011;2772;42.700;23.304;2023-04-03T07:38:58;42.03;;;16.33;;
5499;SDS011;2772;42.700;23.304;2023-04-03T07:41:25;31.87;;;14.27;;
5499;SDS011;2772;42.700;23.304;2023-04-03T07:43:51;29.83;;;17.00;;
5499;SDS011;2772;42.700;23.304;2023-04-03T07:46:18;35.67;;;13.10;;
5499;SDS011;2772;42.700;23.304;2023-04-03T07:48:45;31.87;;;11.40;;
5499;SDS011;2772;42.700;23.304;2023-04-03T07:51:13;13.50;;;8.43;;
5499;SDS011;2772;42.700;23.304;2023-04-03T07:53:41;22.47;;;11.40;;
5499;SDS011;2772;42.700;23.304;2023-04-03T07:56:08;27.80;;;14.07;;
5499;SDS011;2772;42.700;23.304;2023-04-03T07:58:35;25.67;;;12.30;;
5499;SDS011;2772;42.700;23.304;2023-04-03T08:01:03;25.70;;;11.70;;
5499;SDS011;2772;42.700;23.304;2023-04-03T08:03:31;22.90;;;12.60;;
5499;SDS011;2772;42.700;23.304;2023-04-03T08:06:01;21.00;;;13.67;;
5499;SDS011;2772;42.700;23.304;2023-04-03T08:08:31;24.08;;;13.65;;
5499;SDS011;2772;42.700;23.304;2023-04-03T08:10:58;30.20;;;13.40;;
5499;SDS011;2772;42.700;23.304;2023-04-03T08:13:27;23.10;;;13.20;;
5499;SDS011;2772;42.700;23.304;2023-04-03T08:15:55;25.13;;;12.17;;
5499;SDS011;2772;42.700;23.304;2023-04-03T08:18:22;23.33;;;12.90;;
5499;SDS011;2772;42.700;23.304;2023-04-03T08:20:49;26.47;;;11.60;;
5499;SDS011;2772;42.700;23.304;2023-04-03T08:23:16;15.53;;;10.90;;
5499;SDS011;2772;42.700;23.304;2023-04-03T08:25:44;23.53;;;12.03;;
5499;SDS011;2772;42.700;23.304;2023-04-03T08:28:11;22.17;;;12.17;;
5499;SDS011;2772;42.700;23.304;2023-04-03T08:30:38;16.43;;;10.90;;
5499;SDS011;2772;42.700;23.304;2023-04-03T08:33:06;17.73;;;11.00;;
5499;SDS011;2772;42.700;23.304;2023-04-03T08:35:33;22.80;;;10.80;;
5499;SDS011;2772;42.700;23.304;2023-04-03T08:38:05;16.80;;;11.20;;
5499;SDS011;2772;42.700;23.304;2023-04-03T08:40:32;18.27;;;11.63;;
5499;SDS011;2772;42.700;23.304;2023-04-03T08:43:03;22.25;;;12.43;;
5499;SDS011;2772;42.700;23.304;2023-04-03T08:45:46;18.83;;;11.57;;
5499;SDS011;2772;42.700;23.304;2023-04-03T08:48:17;22.13;;;12.50;;
5499;SDS011;2772;42.700;23.304;2023-04-03T08:50:47;28.77;;;11.90;;
5499;SDS011;2772;42.700;23.304;2023-04-03T08:53:18;24.33;;;13.70;;
5499;SDS011;2772;42.700;23.304;2023-04-03T08:55:48;30.90;;;14.33;;
5499;SDS011;2772;42.700;23.304;2023-04-03T08:58:18;29.90;;;13.53;;
5499;SDS011;2772;42.700;23.304;2023-04-03T09:00:49;27.37;;;14.27;;
5499;SDS011;2772;42.700;23.304;2023-04-03T09:03:17;19.90;;;13.00;;
5499;SDS011;2772;42.700;23.304;2023-04-03T09:05:47;24.70;;;13.13;;
5499;SDS011;2772;42.700;23.304;2023-04-03T09:08:21;35.43;;;12.97;;
5499;SDS011;2772;42.700;23.304;2023-04-03T09:10:52;23.63;;;13.13;;
5499;SDS011;2772;42.700;23.304;2023-04-03T09:13:29;40.43;;;15.80;;
5499;SDS011;2772;42.700;23.304;2023-04-03T09:15:59;26.88;;;14.07;;
5499;SDS011;2772;42.700;23.304;2023-04-03T09:18:33;30.03;;;15.30;;
5499;SDS011;2772;42.700;23.304;2023-04-03T09:21:08;36.23;;;13.30;;
5499;SDS011;2772;42.700;23.304;2023-04-03T09:23:44;30.87;;;13.57;;
5499;SDS011;2772;42.700;23.304;2023-04-03T09:26:14;25.33;;;13.67;;
5499;SDS011;2772;42.700;23.304;2023-04-03T09:28:46;24.93;;;12.53;;
5499;SDS011;2772;42.700;23.304;2023-04-03T09:31:20;33.03;;;12.63;;
5499;SDS011;2772;42.700;23.304;2023-04-03T09:33:48;28.57;;;13.73;;
5499;SDS011;2772;42.700;23.304;2023-04-03T09:39:08;38.47;;;13.90;;
5499;SDS011;2772;42.700;23.304;2023-04-03T09:41:39;28.00;;;13.87;;
5499;SDS011;2772;42.700;23.304;2023-04-03T09:44:19;30.77;;;13.30;;
5499;SDS011;2772;42.700;23.304;2023-04-03T09:46:48;25.73;;;15.23;;
5499;SDS011;2772;42.700;23.304;2023-04-03T09:49:15;34.27;;;14.83;;
5499;SDS011;2772;42.700;23.304;2023-04-03T09:51:44;31.93;;;16.17;;
5499;SDS011;2772;42.700;23.304;2023-04-03T09:54:23;21.40;;;12.73;;
5499;SDS011;2772;42.700;23.304;2023-04-03T09:56:52;24.10;;;14.50;;
5499;SDS011;2772;42.700;23.304;2023-04-03T09:59:23;26.50;;;14.47;;
5499;SDS011;2772;42.700;23.304;2023-04-03T10:01:56;23.30;;;14.03;;
5499;SDS011;2772;42.700;23.304;2023-04-03T10:04:24;26.47;;;14.87;;
5499;SDS011;2772;42.700;23.304;2023-04-03T10:06:52;20.10;;;14.37;;
5499;SDS011;2772;42.700;23.304;2023-04-03T10:09:21;39.47;;;13.80;;
5499;SDS011;2772;42.700;23.304;2023-04-03T10:11:59;19.70;;;11.47;;
5499;SDS011;2772;42.700;23.304;2023-04-03T10:14:31;21.43;;;13.77;;
5499;SDS011;2772;42.700;23.304;2023-04-03T10:17:00;23.83;;;13.57;;
5499;SDS011;2772;42.700;23.304;2023-04-03T10:19:33;25.73;;;13.33;;
5499;SDS011;2772;42.700;23.304;2023-04-03T10:22:04;19.50;;;12.73;;
5499;SDS011;2772;42.700;23.304;2023-04-03T10:24:44;29.70;;;15.47;;
5499;SDS011;2772;42.700;23.304;2023-04-03T10:27:18;26.10;;;15.00;;
5499;SDS011;2772;42.700;23.304;2023-04-03T10:29:55;24.90;;;12.60;;
5499;SDS011;2772;42.700;23.304;2023-04-03T10:32:43;20.83;;;11.83;;
5499;SDS011;2772;42.700;23.304;2023-04-03T10:35:16;17.90;;;10.70;;
5499;SDS011;2772;42.700;23.304;2023-04-03T10:37:53;20.60;;;10.10;;
5499;SDS011;2772;42.700;23.304;2023-04-03T10:40:29;17.80;;;9.60;;
5499;SDS011;2772;42.700;23.304;2023-04-03T10:43:02;13.10;;;8.43;;
5499;SDS011;2772;42.700;23.304;2023-04-03T10:45:44;14.00;;;7.50;;
5499;SDS011;2772;42.700;23.304;2023-04-03T10:48:20;11.13;;;6.90;;
5499;SDS011;2772;42.700;23.304;2023-04-03T10:50:58;14.63;;;7.03;;
5499;SDS011;2772;42.700;23.304;2023-04-03T10:53:34;19.80;;;10.37;;
5499;SDS011;2772;42.700;23.304;2023-04-03T10:56:10;30.30;;;8.90;;
5499;SDS011;2772;42.700;23.304;2023-04-03T10:58:43;15.43;;;8.50;;
5499;SDS011;2772;42.700;23.304;2023-04-03T11:01:13;17.13;;;8.50;;
5499;SDS011;2772;42.700;23.304;2023-04-03T11:03:45;16.77;;;7.27;;
5499;SDS011;2772;42.700;23.304;2023-04-03T11:06:16;18.67;;;7.70;;
5499;SDS011;2772;42.700;23.304;2023-04-03T11:08:49;20.40;;;7.60;;
5499;SDS011;2772;42.700;23.304;2023-04-03T11:11:22;11.10;;;7.93;;
5499;SDS011;2772;42.700;23.304;2023-04-03T11:13:54;11.50;;;6.20;;
5499;SDS011;2772;42.700;23.304;2023-04-03T11:16:24;7.03;;;6.10;;
5499;SDS011;2772;42.700;23.304;2023-04-03T11:18:54;16.67;;;6.70;;
5499;SDS011;2772;42.700;23.304;2023-04-03T11:21:27;12.17;;;5.50;;
5499;SDS011;2772;42.700;23.304;2023-04-03T11:23:57;8.07;;;5.20;;
5499;SDS011;2772;42.700;23.304;2023-04-03T11:26:26;9.20;;;5.40;;
5499;SDS011;2772;42.700;23.304;2023-04-03T11:28:56;13.27;;;6.10;;
5499;SDS011;2772;42.700;23.304;2023-04-03T11:34:22;7.47;;;6.30;;
5499;SDS011;2772;42.700;23.304;2023-04-03T11:36:59;7.70;;;5.20;;
5499;SDS011;2772;42.700;23.304;2023-04-03T11:39:28;14.83;;;5.10;;
5499;SDS011;2772;42.700;23.304;2023-04-03T11:42:12;6.53;;;4.73;;
5499;SDS011;2772;42.700;23.304;2023-04-03T11:44:41;5.60;;;4.73;;
5499;SDS011;2772;42.700;23.304;2023-04-03T11:47:10;5.83;;;5.20;;
5499;SDS011;2772;42.700;23.304;2023-04-03T11:49:51;4.43;;;4.03;;
5499;SDS011;2772;42.700;23.304;2023-04-03T11:55:44;5.00;;;4.60;;
5499;SDS011;2772;42.700;23.304;2023-04-03T11:58:31;4.90;;;4.50;;
5499;SDS011;2772;42.700;23.304;2023-04-03T12:01:09;5.90;;;4.50;;
5499;SDS011;2772;42.700;23.304;2023-04-03T12:12:55;4.80;;;4.40;;
5499;SDS011;2772;42.700;23.304;2023-04-03T12:21:17;5.93;;;3.97;;
5499;SDS011;2772;42.700;23.304;2023-04-03T12:23:57;4.40;;;3.03;;
5499;SDS011;2772;42.700;23.304;2023-04-03T12:26:29;4.23;;;3.73;;
5499;SDS011;2772;42.700;23.304;2023-04-03T12:28:58;5.00;;;3.73;;
5499;SDS011;2772;42.700;23.304;2023-04-03T12:31:38;4.80;;;3.80;;
5499;SDS011;2772;42.700;23.304;2023-04-03T12:34:15;7.87;;;6.10;;
5499;SDS011;2772;42.700;23.304;2023-04-03T12:36:57;5.77;;;5.10;;
5499;SDS011;2772;42.700;23.304;2023-04-03T12:39:48;5.33;;;4.40;;
5499;SDS011;2772;42.700;23.304;2023-04-03T12:42:32;5.10;;;4.60;;
5499;SDS011;2772;42.700;23.304;2023-04-03T12:45:12;8.57;;;4.90;;
5499;SDS011;2772;42.700;23.304;2023-04-03T12:47:44;7.10;;;4.63;;
5499;SDS011;2772;42.700;23.304;2023-04-03T12:50:18;8.03;;;4.50;;
5499;SDS011;2772;42.700;23.304;2023-04-03T12:52:51;4.40;;;4.00;;
5499;SDS011;2772;42.700;23.304;2023-04-03T12:55:22;5.83;;;4.87;;
5499;SDS011;2772;42.700;23.304;2023-04-03T12:57:50;5.83;;;5.30;;
5499;SDS011;2772;42.700;23.304;2023-04-03T13:03:04;6.57;;;4.90;;
5499;SDS011;2772;42.700;23.304;2023-04-03T13:05:45;6.10;;;5.50;;
5499;SDS011;2772;42.700;23.304;2023-04-03T13:08:12;7.87;;;6.17;;
5499;SDS011;2772;42.700;23.304;2023-04-03T13:10:43;7.37;;;5.80;;
5499;SDS011;2772;42.700;23.304;2023-04-03T13:13:18;9.87;;;5.93;;
5499;SDS011;2772;42.700;23.304;2023-04-03T13:15:46;6.70;;;5.83;;
5499;SDS011;2772;42.700;23.304;2023-04-03T13:18:25;10.23;;;7.23;;
5499;SDS011;2772;42.700;23.304;2023-04-03T13:20:57;7.77;;;6.97;;
5499;SDS011;2772;42.700;23.304;2023-04-03T13:23:28;12.37;;;7.20;;
5499;SDS011;2772;42.700;23.304;2023-04-03T13:25:56;7.57;;;6.30;;
5499;SDS011;2772;42.700;23.304;2023-04-03T13:28:30;8.57;;;6.77;;
5499;SDS011;2772;42.700;23.304;2023-04-03T13:31:03;10.10;;;8.30;;
5499;SDS011;2772;42.700;23.304;2023-04-03T13:33:35;12.70;;;8.20;;
5499;SDS011;2772;42.700;23.304;2023-04-03T13:36:05;12.03;;;8.13;;
5499;SDS011;2772;42.700;23.304;2023-04-03T13:38:42;10.80;;;8.50;;
5499;SDS011;2772;42.700;23.304;2023-04-03T13:41:21;9.93;;;7.50;;
5499;SDS011;2772;42.700;23.304;2023-04-03T13:43:52;11.57;;;8.23;;
5499;SDS011;2772;42.700;23.304;2023-04-03T13:46:24;12.07;;;8.50;;
5499;SDS011;2772;42.700;23.304;2023-04-03T13:48:54;8.90;;;6.67;;
5499;SDS011;2772;42.700;23.304;2023-04-03T13:51:23;10.20;;;8.67;;
5499;SDS011;2772;42.700;23.304;2023-04-03T13:53:52;7.63;;;6.47;;
5499;SDS011;2772;42.700;23.304;2023-04-03T13:56:23;7.03;;;6.30;;
5499;SDS011;2772;42.700;23.304;2023-04-03T13:58:59;7.63;;;6.13;;
5499;SDS011;2772;42.700;23.304;2023-04-03T14:01:34;9.70;;;6.90;;
5499;SDS011;2772;42.700;23.304;2023-04-03T14:04:10;8.30;;;7.20;;
5499;SDS011;2772;42.700;23.304;2023-04-03T14:06:40;10.07;;;6.93;;
5499;SDS011;2772;42.700;23.304;2023-04-03T14:09:07;17.03;;;8.10;;
5499;SDS011;2772;42.700;23.304;2023-04-03T14:11:34;9.67;;;7.00;;
5499;SDS011;2772;42.700;23.304;2023-04-03T14:14:06;9.43;;;8.43;;
5499;SDS011;2772;42.700;23.304;2023-04-03T14:16:38;9.13;;;8.23;;
5499;SDS011;2772;42.700;23.304;2023-04-03T14:19:07;8.73;;;7.60;;
5499;SDS011;2772;42.700;23.304;2023-04-03T14:21:40;11.80;;;7.40;;
5499;SDS011;2772;42.700;23.304;2023-04-03T14:24:07;11.10;;;7.10;;
5499;SDS011;2772;42.700;23.304;2023-04-03T14:26:34;9.73;;;6.20;;
5499;SDS011;2772;42.700;23.304;2023-04-03T14:29:01;9.57;;;8.07;;
5499;SDS011;2772;42.700;23.304;2023-04-03T14:31:30;8.80;;;7.33;;
5499;SDS011;2772;42.700;23.304;2023-04-03T14:33:56;11.20;;;7.77;;
5499;SDS011;2772;42.700;23.304;2023-04-03T14:36:24;10.97;;;7.43;;
5499;SDS011;2772;42.700;23.304;2023-04-03T14:38:53;8.40;;;7.50;;
5499;SDS011;2772;42.700;23.304;2023-04-03T14:41:22;11.93;;;7.03;;
5499;SDS011;2772;42.700;23.304;2023-04-03T14:43:51;13.07;;;7.60;;
5499;SDS011;2772;42.700;23.304;2023-04-03T14:46:21;12.50;;;8.07;;
5499;SDS011;2772;42.700;23.304;2023-04-03T14:48:50;9.60;;;6.93;;
5499;SDS011;2772;42.700;23.304;2023-04-03T14:51:16;10.63;;;6.60;;
5499;SDS011;2772;42.700;23.304;2023-04-03T14:53:44;10.70;;;8.30;;
5499;SDS011;2772;42.700;23.304;2023-04-03T14:56:12;10.17;;;7.60;;
5499;SDS011;2772;42.700;23.304;2023-04-03T14:58:49;8.40;;;6.80;;
5499;SDS011;2772;42.700;23.304;2023-04-03T15:01:21;9.40;;;6.73;;
5499;SDS011;2772;42.700;23.304;2023-04-03T15:03:48;12.77;;;8.03;;
5499;SDS011;2772;42.700;23.304;2023-04-03T15:06:15;8.20;;;6.23;;
5499;SDS011;2772;42.700;23.304;2023-04-03T15:08:42;5.97;;;5.47;;
5499;SDS011;2772;42.700;23.304;2023-04-03T15:11:10;9.80;;;6.90;;
5499;SDS011;2772;42.700;23.304;2023-04-03T15:13:37;10.00;;;8.27;;
5499;SDS011;2772;42.700;23.304;2023-04-03T15:16:05;6.10;;;5.50;;
5499;SDS011;2772;42.700;23.304;2023-04-03T15:18:40;7.00;;;5.93;;
5499;SDS011;2772;42.700;23.304;2023-04-03T15:21:07;8.43;;;7.20;;
5499;SDS011;2772;42.700;23.304;2023-04-03T15:23:33;5.50;;;4.90;;
5499;SDS011;2772;42.700;23.304;2023-04-03T15:26:00;6.50;;;4.80;;
5499;SDS011;2772;42.700;23.304;2023-04-03T15:28:28;7.30;;;5.70;;